createdAt,value
2018-08-29T00:01:15.955Z,56.70
2018-08-29T00:06:19.054Z,56.60
2018-08-29T00:11:22.177Z,56.70
2018-08-29T00:16:25.271Z,56.80
2018-08-29T00:21:28.383Z,56.80
2018-08-29T00:26:31.491Z,57.00
2018-08-29T00:31:34.609Z,56.90
2018-08-29T00:36:37.699Z,56.80
2018-08-29T00:41:40.787Z,57.20
2018-08-29T00:46:43.889Z,57.20
2018-08-29T00:51:46.987Z,56.90
2018-08-29T00:56:50.093Z,57.10
2018-08-29T01:01:53.237Z,57.40
2018-08-29T01:06:56.302Z,57.40
2018-08-29T01:12:05.821Z,57.40
2018-08-29T01:17:08.926Z,58.30
2018-08-29T01:22:12.068Z,57.50
2018-08-29T01:27:15.150Z,57.80
2018-08-29T01:32:18.234Z,57.80
2018-08-29T01:37:21.308Z,57.70
2018-08-29T01:42:24.397Z,57.60
2018-08-29T01:47:27.498Z,57.50
2018-08-29T01:52:30.596Z,57.70
2018-08-29T01:57:33.673Z,57.90
2018-08-29T02:02:37.122Z,58.60
2018-08-29T02:07:40.206Z,58.10
2018-08-29T02:12:43.291Z,58.10
2018-08-29T02:17:46.403Z,58.20
2018-08-29T02:22:49.498Z,58.20
2018-08-29T02:27:52.619Z,58.20
2018-08-29T02:32:55.723Z,58.30
2018-08-29T02:37:58.852Z,58.30
2018-08-29T02:43:07.452Z,58.00
2018-08-29T02:48:10.588Z,58.20
2018-08-29T02:53:13.683Z,58.50
2018-08-29T02:58:16.787Z,58.40
2018-08-29T03:03:19.899Z,58.70
2018-08-29T03:08:23.011Z,58.60
2018-08-29T03:13:32.926Z,58.70
2018-08-29T03:18:36.028Z,58.70
2018-08-29T03:23:39.135Z,58.90
2018-08-29T03:28:42.259Z,58.60
2018-08-29T03:33:45.388Z,58.90
2018-08-29T03:38:48.505Z,58.90
2018-08-29T03:43:51.587Z,58.80
2018-08-29T03:48:54.684Z,58.80
2018-08-29T03:53:57.808Z,59.20
2018-08-29T03:59:00.891Z,59.10
2018-08-29T04:04:04.052Z,59.10
2018-08-29T04:09:08.408Z,59.10
2018-08-29T04:14:11.923Z,59.10
2018-08-29T04:19:15.190Z,59.10
2018-08-29T04:24:18.344Z,59.00
2018-08-29T04:29:21.399Z,59.20
2018-08-29T04:34:24.505Z,59.30
2018-08-29T04:39:27.588Z,59.30
2018-08-29T04:44:30.683Z,59.40
2018-08-29T04:49:33.767Z,59.40
2018-08-29T04:54:36.935Z,59.40
2018-08-29T04:59:40.031Z,59.60
2018-08-29T05:04:43.115Z,59.50
2018-08-29T05:09:46.263Z,59.90
2018-08-29T05:14:49.347Z,59.90
2018-08-29T05:19:52.464Z,60.00
2018-08-29T05:24:55.601Z,61.10
2018-08-29T05:29:58.798Z,60.70
2018-08-29T05:35:01.879Z,60.40
2018-08-29T05:40:05.007Z,60.60
2018-08-29T05:45:08.105Z,61.00
2018-08-29T05:50:11.203Z,61.20
2018-08-29T05:55:14.298Z,62.00
2018-08-29T06:00:17.382Z,61.90
2018-08-29T06:05:20.487Z,62.20
2018-08-29T06:10:23.587Z,61.90
2018-08-29T06:15:26.682Z,62.80
2018-08-29T06:20:29.811Z,63.00
2018-08-29T06:25:32.902Z,62.60
2018-08-29T06:30:36.004Z,63.20
2018-08-29T06:35:39.207Z,62.90
2018-08-29T06:40:42.296Z,62.80
2018-08-29T06:45:45.427Z,62.90
2018-08-29T06:50:48.533Z,62.40
2018-08-29T06:55:51.623Z,62.10
2018-08-29T07:00:54.719Z,62.50
2018-08-29T07:05:57.826Z,61.80
2018-08-29T07:11:00.923Z,61.30
2018-08-29T07:16:04.092Z,61.20
2018-08-29T07:21:07.142Z,60.40
2018-08-29T07:26:10.231Z,60.10
2018-08-29T07:31:13.327Z,59.60
2018-08-29T07:36:16.509Z,59.80
2018-08-29T07:41:19.723Z,59.30
2018-08-29T07:46:22.847Z,58.50
2018-08-29T07:51:25.968Z,57.90
2018-08-29T07:56:29.070Z,58.30
2018-08-29T08:01:32.252Z,57.40
2018-08-29T08:06:35.248Z,57.20
2018-08-29T08:11:38.347Z,56.50
2018-08-29T08:16:41.592Z,56.40
2018-08-29T08:21:44.688Z,55.60
2018-08-29T08:26:47.787Z,55.00
2018-08-29T08:31:50.896Z,54.30
2018-08-29T08:36:54.004Z,54.30
2018-08-29T08:41:57.080Z,53.90
2018-08-29T08:47:00.201Z,53.40
2018-08-29T08:52:03.387Z,52.80
2018-08-29T08:57:06.596Z,52.50
2018-08-29T09:02:09.748Z,52.40
2018-08-29T09:07:12.876Z,51.40
2018-08-29T09:12:16.097Z,51.30
2018-08-29T09:17:19.202Z,50.90
2018-08-29T09:22:22.322Z,50.60
2018-08-29T09:27:25.412Z,50.00
2018-08-29T09:32:28.528Z,49.40
2018-08-29T09:37:31.628Z,49.50
2018-08-29T09:42:34.743Z,49.70
2018-08-29T09:47:37.895Z,49.80
2018-08-29T09:52:40.987Z,48.80
2018-08-29T09:57:44.102Z,48.50
2018-08-29T10:02:52.743Z,46.30
2018-08-29T10:07:55.955Z,47.10
2018-08-29T10:12:59.071Z,46.40
2018-08-29T10:18:02.168Z,46.60
2018-08-29T10:23:05.435Z,46.90
2018-08-29T10:28:08.558Z,46.80
2018-08-29T10:33:11.679Z,45.80
2018-08-29T10:38:14.808Z,46.10
2018-08-29T10:43:17.890Z,45.30
2018-08-29T10:48:21.002Z,45.00
2018-08-29T10:53:24.111Z,43.60
2018-08-29T10:58:27.225Z,43.70
2018-08-29T11:03:30.363Z,43.80
2018-08-29T11:08:33.486Z,42.90
2018-08-29T11:13:36.607Z,43.50
2018-08-29T11:18:39.715Z,43.80
2018-08-29T11:23:42.838Z,43.70
2018-08-29T11:28:45.947Z,41.60
2018-08-29T11:33:49.052Z,41.80
2018-08-29T11:38:52.142Z,42.50
2018-08-29T11:43:55.227Z,42.00
2018-08-29T11:48:58.330Z,42.00
2018-08-29T11:54:01.461Z,42.50
2018-08-29T11:59:04.562Z,42.40
2018-08-29T12:04:07.655Z,42.20
2018-08-29T12:09:10.736Z,40.90
2018-08-29T12:14:13.846Z,40.60
2018-08-29T12:19:17.003Z,40.40
2018-08-29T12:24:20.084Z,41.00
2018-08-29T12:29:23.196Z,40.90
2018-08-29T12:34:26.303Z,40.30
2018-08-29T12:39:29.415Z,39.80
2018-08-29T12:44:32.548Z,40.10
2018-08-29T12:49:35.675Z,39.40
2018-08-29T12:54:38.767Z,39.10
2018-08-29T12:59:41.891Z,39.30
2018-08-29T13:04:44.970Z,39.90
2018-08-29T13:09:48.107Z,39.90
2018-08-29T13:14:51.353Z,39.10
2018-08-29T13:19:54.380Z,39.10
2018-08-29T13:24:57.475Z,39.30
2018-08-29T13:30:00.613Z,39.40
2018-08-29T13:35:03.998Z,38.30
2018-08-29T13:40:07.281Z,38.70
2018-08-29T13:45:10.419Z,37.80
2018-08-29T13:50:13.551Z,38.50
2018-08-29T13:55:16.735Z,38.40
2018-08-29T14:00:19.860Z,38.80
2018-08-29T14:05:22.983Z,40.00
2018-08-29T14:10:26.085Z,38.30
2018-08-29T14:15:29.157Z,39.30
2018-08-29T14:20:32.255Z,39.80
2018-08-29T14:25:35.372Z,40.70
2018-08-29T14:30:38.476Z,40.30
2018-08-29T14:35:41.559Z,40.60
2018-08-29T14:40:44.665Z,40.40
2018-08-29T14:45:47.780Z,39.90
2018-08-29T14:50:50.868Z,39.70
2018-08-29T14:55:53.993Z,39.00
2018-08-29T15:01:09.788Z,38.60
2018-08-29T15:06:13.525Z,38.10
2018-08-29T15:11:16.623Z,39.70
2018-08-29T15:16:19.765Z,38.30
2018-08-29T15:21:22.871Z,39.00
2018-08-29T15:26:26.058Z,39.60
2018-08-29T15:31:29.147Z,39.90
2018-08-29T15:36:32.300Z,40.10
2018-08-29T15:41:35.370Z,39.70
2018-08-29T15:46:39.704Z,39.80
2018-08-29T15:51:42.812Z,39.80
2018-08-29T15:56:45.915Z,39.90
2018-08-29T16:01:49.007Z,40.50
2018-08-29T16:06:58.990Z,40.90
2018-08-29T16:12:02.049Z,40.80
2018-08-29T16:17:05.446Z,41.10
2018-08-29T16:23:37.923Z,41.10
2018-08-29T16:28:41.048Z,41.10
2018-08-29T16:33:44.163Z,42.10
2018-08-29T16:38:47.266Z,41.20
2018-08-29T16:43:50.407Z,41.10
2018-08-29T16:48:53.679Z,41.60
2018-08-29T16:53:57.193Z,41.40
2018-08-29T17:06:28.106Z,42.00
2018-08-29T17:11:31.340Z,41.70
2018-08-29T17:16:34.543Z,41.70
2018-08-29T17:21:38.004Z,42.00
2018-08-29T17:26:41.649Z,42.30
2018-08-29T17:31:44.899Z,42.60
2018-08-29T17:36:47.995Z,42.50
2018-08-29T17:41:51.243Z,42.80
2018-08-29T17:46:54.708Z,43.20
2018-08-29T17:51:57.802Z,43.30
2018-08-29T17:57:00.899Z,43.40
2018-08-29T18:02:04.019Z,43.60
2018-08-29T18:07:07.140Z,43.60
2018-08-29T18:12:10.247Z,43.60
2018-08-29T18:17:20.588Z,44.20
2018-08-29T18:22:23.763Z,44.60
2018-08-29T18:27:27.300Z,45.10
2018-08-29T18:32:30.484Z,45.40
2018-08-29T18:37:35.087Z,45.60
2018-08-29T18:42:38.191Z,45.50
2018-08-29T18:47:41.350Z,45.50
2018-08-29T18:52:44.565Z,45.70
2018-08-29T18:57:47.615Z,46.50
2018-08-29T19:02:50.715Z,46.10
2018-08-29T19:07:53.851Z,46.50
2018-08-29T19:12:56.982Z,46.70
2018-08-29T19:18:00.127Z,46.60
2018-08-29T19:23:03.217Z,46.60
2018-08-29T19:28:06.341Z,47.40
2018-08-29T19:33:09.499Z,47.20
2018-08-29T19:38:12.609Z,47.50
2018-08-29T19:43:15.700Z,47.70
2018-08-29T19:48:19.054Z,47.60
2018-08-29T19:53:22.159Z,48.10
2018-08-29T19:58:25.272Z,48.40
2018-08-29T20:03:28.488Z,48.60
2018-08-29T20:08:31.663Z,48.20
2018-08-29T20:13:34.868Z,48.50
2018-08-29T20:18:43.460Z,48.60
2018-08-29T20:23:46.698Z,48.90
2018-08-29T20:28:49.879Z,49.00
2018-08-29T20:33:53.011Z,48.80
2018-08-29T20:38:56.156Z,48.80
2018-08-29T20:43:59.279Z,48.90
2018-08-29T20:49:02.406Z,49.20
2018-08-29T20:54:05.509Z,49.00
2018-08-29T20:59:08.627Z,49.50
2018-08-29T21:04:11.746Z,49.80
2018-08-29T21:09:14.880Z,49.80
2018-08-29T21:14:17.988Z,49.80
2018-08-29T21:19:21.107Z,50.00
2018-08-29T21:24:24.342Z,50.20
2018-08-29T21:29:39.006Z,50.30
2018-08-29T21:37:03.226Z,50.60
2018-08-29T21:42:06.591Z,50.50
2018-08-29T21:47:34.685Z,50.60
2018-08-29T21:53:47.867Z,50.80
2018-08-29T21:59:05.902Z,50.60
2018-08-29T22:05:14.486Z,51.10
2018-08-29T22:10:17.583Z,50.90
2018-08-29T22:15:23.971Z,52.00
2018-08-29T22:20:28.018Z,51.50
2018-08-29T22:25:31.144Z,52.00
2018-08-29T22:30:34.267Z,52.90
2018-08-29T22:35:37.395Z,52.50
2018-08-29T22:40:40.532Z,52.80
2018-08-29T22:45:43.687Z,52.90
2018-08-29T22:50:46.811Z,53.10
2018-08-29T22:55:49.932Z,53.40
2018-08-29T23:00:53.049Z,53.50
2018-08-29T23:05:56.151Z,53.50
2018-08-29T23:10:59.254Z,53.80
2018-08-29T23:16:02.376Z,54.00
2018-08-29T23:21:05.512Z,54.30
2018-08-29T23:26:08.628Z,55.00
2018-08-29T23:31:11.755Z,54.30
2018-08-29T23:36:14.880Z,54.50
2018-08-29T23:41:17.982Z,54.20
2018-08-29T23:46:21.190Z,54.50
2018-08-29T23:51:24.302Z,54.00
2018-08-29T23:56:27.423Z,54.40
